| time (UTC) | temp F | wind direction | speed MPH | gust MPH | rain 1hr in | rain 24hr in | rain mn in | humidity % | barometer mb |
| 20260902042123 | 56 | 219 | 1.0 | 1.0 | 0.00 | 0.00 | 0.00 | 83 | 1017.3 |
| 20260902041626 | 56 | 238 | 2.0 | 2.0 | 0.00 | 0.00 | 0.00 | 83 | 1017.3 |
| 20260902041124 | 56 | 227 | 2.0 | 3.0 | 0.00 | 0.00 | 0.00 | 83 | 1017.3 |
| 20260902040623 | 56 | 234 | 4.0 | 5.0 | 0.00 | 0.00 | 0.00 | 83 | 1017.3 |
| 20260902040124 | 56 | 221 | 1.0 | 2.0 | 0.00 | 0.00 | 0.00 | 83 | 1017.3 |
| 20260902035624 | 56 | 257 | 3.0 | 5.0 | 0.00 | 0.00 | 0.00 | 83 | 1017.3 |
| 20260902035123 | 56 | 212 | 3.0 | 3.0 | 0.00 | 0.00 | 0.00 | 83 | 1017.3 |
| 20260902034623 | 56 | 230 | 3.0 | 5.0 | 0.00 | 0.00 | 0.00 | 83 | 1017.3 |
| 20260902034123 | 56 | 234 | 2.0 | 3.0 | 0.00 | 0.00 | 0.00 | 83 | 1016.9 |
| 20260902033625 | 56 | 223 | 3.0 | 5.0 | 0.00 | 0.00 | 0.00 | 83 | 1016.9 |
| 20260902033123 | 56 | 239 | 4.0 | 5.0 | 0.00 | 0.00 | 0.00 | 83 | 1016.9 |
| 20260902032624 | 57 | 233 | 2.0 | 3.0 | 0.00 | 0.00 | 0.00 | 82 | 1016.9 |
| 20260902032123 | 57 | 215 | 2.0 | 2.0 | 0.00 | 0.00 | 0.00 | 82 | 1017.3 |
| 20260902031625 | 57 | 227 | 4.0 | 5.0 | 0.00 | 0.00 | 0.00 | 82 | 1016.9 |
| 20260902031123 | 57 | 209 | 0.0 | 1.0 | 0.00 | 0.00 | 0.00 | 82 | 1016.9 |
| 20260902030624 | 57 | 241 | 2.0 | 2.0 | 0.00 | 0.00 | 0.00 | 82 | 1017.3 |
| 20260902030123 | 57 | 221 | 1.0 | 1.0 | 0.00 | 0.00 | 0.00 | 82 | 1017.3 |
| 20260902025623 | 57 | 225 | 2.0 | 2.0 | 0.00 | 0.00 | 0.00 | 82 | 1017.3 |
| 20260902025123 | 57 | 227 | 3.0 | 3.0 | 0.00 | 0.00 | 0.00 | 82 | 1017.3 |
| 20260902024624 | 57 | 282 | 2.0 | 5.0 | 0.00 | 0.00 | 0.00 | 82 | 1017.3 |
| 20260902024123 | 57 | 221 | 4.0 | 6.0 | 0.00 | 0.00 | 0.00 | 82 | 1017.3 |
| 20260902023623 | 57 | 211 | 4.0 | 5.0 | 0.00 | 0.00 | 0.00 | 82 | 1016.9 |
| 20260902023125 | 57 | 192 | 4.0 | 6.0 | 0.00 | 0.00 | 0.00 | 82 | 1017.3 |
| 20260902022624 | 57 | 230 | 2.0 | 3.0 | 0.00 | 0.00 | 0.00 | 82 | 1017.3 |
| 20260902022123 | 57 | 237 | 3.0 | 5.0 | 0.00 | 0.00 | 0.00 | 82 | 1017.3 |
| 20260902021624 | 57 | 241 | 4.0 | 5.0 | 0.00 | 0.00 | 0.00 | 82 | 1016.9 |
| 20260902021125 | 57 | 211 | 4.0 | 5.0 | 0.00 | 0.00 | 0.00 | 81 | 1017.3 |
| 20260902020624 | 57 | 209 | 2.0 | 2.0 | 0.00 | 0.00 | 0.00 | 81 | 1016.9 |
| 20260902020123 | 57 | 224 | 2.0 | 2.0 | 0.00 | 0.00 | 0.00 | 81 | 1017.3 |
| 20260902015623 | 57 | 225 | 1.0 | 2.0 | 0.00 | 0.00 | 0.00 | 81 | 1016.9 |
| 20260902015125 | 57 | 248 | 4.0 | 5.0 | 0.00 | 0.00 | 0.00 | 81 | 1016.9 |
| 20260902014623 | 57 | 207 | 0.0 | 1.0 | 0.00 | 0.00 | 0.00 | 80 | 1016.6 |
| 20260902014123 | 57 | 225 | 2.0 | 2.0 | 0.00 | 0.00 | 0.00 | 80 | 1016.6 |
| 20260902013623 | 57 | 201 | 2.0 | 2.0 | 0.00 | 0.00 | 0.00 | 80 | 1016.9 |
| 20260902013123 | 57 | 206 | 1.0 | 2.0 | 0.00 | 0.00 | 0.00 | 80 | 1016.9 |
| 20260902012625 | 57 | 200 | 2.0 | 3.0 | 0.00 | 0.00 | 0.00 | 80 | 1016.9 |
| 20260902012123 | 57 | 220 | 3.0 | 3.0 | 0.00 | 0.00 | 0.00 | 80 | 1016.9 |
| 20260902011626 | 57 | 247 | 4.0 | 5.0 | 0.00 | 0.00 | 0.00 | 80 | 1016.9 |
| 20260902011123 | 57 | 228 | 3.0 | 3.0 | 0.00 | 0.00 | 0.00 | 80 | 1016.6 |
| 20260902010623 | 58 | 258 | 3.0 | 3.0 | 0.00 | 0.00 | 0.00 | 80 | 1016.9 |
| 20260902010124 | 58 | 222 | 2.0 | 3.0 | 0.00 | 0.00 | 0.00 | 79 | 1016.6 |
| 20260902005624 | 58 | 234 | 4.0 | 5.0 | 0.00 | 0.00 | 0.00 | 79 | 1016.6 |
| 20260902005123 | 58 | 214 | 3.0 | 3.0 | 0.00 | 0.00 | 0.00 | 79 | 1016.9 |
| 20260902004624 | 58 | 231 | 2.0 | 2.0 | 0.00 | 0.00 | 0.00 | 79 | 1016.9 |
| 20260902004125 | 58 | 226 | 2.0 | 3.0 | 0.00 | 0.00 | 0.00 | 79 | 1016.6 |
| 20260902003623 | 58 | 271 | 2.0 | 3.0 | 0.00 | 0.00 | 0.00 | 78 | 1016.9 |
| 20260902003125 | 58 | 222 | 1.0 | 2.0 | 0.00 | 0.00 | 0.00 | 78 | 1016.9 |
| 20260902002626 | 59 | 267 | 3.0 | 3.0 | 0.00 | 0.00 | 0.00 | 78 | 1016.9 |
| 20260902002123 | 59 | 266 | 4.0 | 5.0 | 0.00 | 0.00 | 0.00 | 78 | 1016.9 |
| 20260902001623 | 59 | 267 | 3.0 | 3.0 | 0.00 | 0.00 | 0.00 | 78 | 1016.9 |
| 20260902001124 | 59 | 246 | 3.0 | 3.0 | 0.00 | 0.00 | 0.00 | 77 | 1016.6 |
| 20260902000623 | 59 | 235 | 3.0 | 3.0 | 0.00 | 0.00 | 0.00 | 77 | 1016.9 |
| 20260902000123 | 59 | 211 | 2.0 | 3.0 | 0.00 | 0.00 | 0.00 | 77 | 1016.9 |
| 20260901235623 | 59 | 216 | 1.0 | 2.0 | 0.00 | 0.00 | 0.00 | 77 | 1016.9 |
| 20260901235123 | 60 | 216 | 4.0 | 5.0 | 0.00 | 0.00 | 0.00 | 76 | 1016.9 |
| 20260901234623 | 60 | 242 | 2.0 | 3.0 | 0.00 | 0.00 | 0.00 | 76 | 1016.9 |
| 20260901234125 | 60 | 218 | 1.0 | 1.0 | 0.00 | 0.00 | 0.00 | 76 | 1016.9 |
| 20260901233623 | 60 | 216 | 1.0 | 1.0 | 0.00 | 0.00 | 0.00 | 76 | 1016.9 |
| 20260901233124 | 60 | 274 | 4.0 | 5.0 | 0.00 | 0.00 | 0.00 | 76 | 1016.9 |
| 20260901232623 | 60 | 212 | 4.0 | 5.0 | 0.00 | 0.00 | 0.00 | 76 | 1016.9 |
| 20260901232123 | 60 | 272 | 2.0 | 2.0 | 0.00 | 0.00 | 0.00 | 76 | 1016.6 |
| 20260901231623 | 61 | 250 | 3.0 | 3.0 | 0.00 | 0.00 | 0.00 | 75 | 1016.9 |
| 20260901231124 | 61 | 221 | 3.0 | 3.0 | 0.00 | 0.00 | 0.00 | 76 | 1016.9 |
| 20260901230623 | 61 | 278 | 3.0 | 6.0 | 0.00 | 0.00 | 0.00 | 76 | 1016.9 |
| 20260901230122 | 61 | 233 | 2.0 | 2.0 | 0.00 | 0.00 | 0.00 | 76 | 1016.9 |
| 20260901225623 | 61 | 280 | 3.0 | 5.0 | 0.00 | 0.00 | 0.00 | 77 | 1016.9 |
| 20260901225124 | 61 | 243 | 2.0 | 2.0 | 0.00 | 0.00 | 0.00 | 77 | 1016.6 |
| 20260901224623 | 61 | 216 | 0.0 | 0.0 | 0.00 | 0.00 | 0.00 | 77 | 1016.9 |
| 20260901224123 | 61 | 221 | 1.0 | 1.0 | 0.00 | 0.00 | 0.00 | 77 | 1016.9 |
| 20260901223623 | 61 | 242 | 4.0 | 5.0 | 0.00 | 0.00 | 0.00 | 77 | 1016.9 |
| 20260901223123 | 61 | 220 | 1.0 | 2.0 | 0.00 | 0.00 | 0.00 | 77 | 1016.9 |
| 20260901222624 | 61 | 219 | 3.0 | 3.0 | 0.00 | 0.00 | 0.00 | 77 | 1016.9 |
| 20260901222123 | 61 | 207 | 3.0 | 3.0 | 0.00 | 0.00 | 0.00 | 77 | 1016.9 |
| 20260901221623 | 61 | 336 | 2.0 | 2.0 | 0.00 | 0.00 | 0.00 | 77 | 1016.9 |
| 20260901221124 | 60 | 232 | 5.0 | 6.0 | 0.00 | 0.00 | 0.00 | 77 | 1016.6 |
| 20260901220623 | 60 | 222 | 0.0 | 0.0 | 0.00 | 0.00 | 0.00 | 78 | 1016.6 |
| 20260901220124 | 60 | 256 | 3.0 | 3.0 | 0.00 | 0.00 | 0.00 | 79 | 1016.6 |
| 20260901215623 | 60 | 238 | 3.0 | 3.0 | 0.00 | 0.00 | 0.10 | 79 | 1016.6 |
| 20260901215126 | 60 | 209 | 0.0 | 1.0 | 0.00 | 0.00 | 0.10 | 79 | 1016.6 |
| 20260901214623 | 60 | 198 | 1.0 | 2.0 | 0.00 | 0.00 | 0.10 | 79 | 1016.3 |
| 20260901214123 | 60 | 243 | 3.0 | 3.0 | 0.00 | 0.00 | 0.10 | 79 | 1016.3 |
| 20260901213623 | 60 | 231 | 2.0 | 2.0 | 0.00 | 0.00 | 0.10 | 79 | 1016.3 |
| 20260901213123 | 60 | 229 | 2.0 | 2.0 | 0.00 | 0.00 | 0.10 | 78 | 1016.3 |
| 20260901212623 | 61 | 218 | 1.0 | 1.0 | 0.00 | 0.00 | 0.10 | 78 | 1016.3 |
| 20260901212123 | 61 | 204 | 2.0 | 2.0 | 0.00 | 0.00 | 0.10 | 77 | 1016.6 |
| 20260901211624 | 61 | 275 | 4.0 | 5.0 | 0.00 | 0.00 | 0.10 | 77 | 1016.6 |
| 20260901211123 | 61 | 212 | 3.0 | 3.0 | 0.00 | 0.00 | 0.10 | 77 | 1016.6 |
| 20260901210624 | 61 | 207 | 1.0 | 1.0 | 0.00 | 0.00 | 0.10 | 77 | 1016.6 |
| 20260901210123 | 61 | 221 | 2.0 | 2.0 | 0.00 | 0.00 | 0.10 | 77 | 1016.6 |
| 20260901205623 | 61 | 232 | 0.0 | 1.0 | 0.00 | 0.00 | 0.10 | 77 | 1016.3 |
| 20260901205123 | 61 | 237 | 3.0 | 3.0 | 0.00 | 0.00 | 0.10 | 77 | 1016.3 |
| 20260901204624 | 61 | 238 | 2.0 | 3.0 | 0.00 | 0.00 | 0.10 | 78 | 1016.3 |
| 20260901204123 | 61 | 239 | 1.0 | 2.0 | 0.00 | 0.00 | 0.10 | 77 | 1016.6 |
| 20260901203623 | 61 | 204 | 2.0 | 3.0 | 0.00 | 0.00 | 0.10 | 77 | 1016.6 |
| 20260901203125 | 61 | 248 | 2.0 | 2.0 | 0.00 | 0.00 | 0.10 | 77 | 1016.6 |
| 20260901202623 | 61 | 223 | 2.0 | 2.0 | 0.00 | 0.00 | 0.10 | 78 | 1016.3 |
| 20260901202124 | 61 | 221 | 2.0 | 2.0 | 0.00 | 0.00 | 0.10 | 78 | 1016.6 |
| 20260901201623 | 61 | 279 | 3.0 | 3.0 | 0.00 | 0.00 | 0.10 | 78 | 1016.6 |
| 20260901201123 | 61 | 183 | 1.0 | 1.0 | 0.00 | 0.00 | 0.10 | 77 | 1016.3 |
| 20260901200623 | 61 | 239 | 1.0 | 1.0 | 0.00 | 0.00 | 0.10 | 77 | 1016.3 |
| 20260901200124 | 61 | 257 | 2.0 | 2.0 | 0.00 | 0.00 | 0.10 | 77 | 1016.3 |
| 20260901195624 | 61 | 246 | 0.0 | 1.0 | 0.00 | 0.00 | 0.10 | 78 | 1016.3 |
| 20260901195123 | 61 | 232 | 0.0 | 0.0 | 0.00 | 0.00 | 0.10 | 77 | 1016.3 |
| 20260901194623 | 61 | 217 | 1.0 | 1.0 | 0.00 | 0.00 | 0.10 | 77 | 1016.3 |
| 20260901194123 | 61 | 227 | 1.0 | 1.0 | 0.00 | 0.00 | 0.10 | 77 | 1016.3 |
| 20260901193623 | 61 | 218 | 1.0 | 2.0 | 0.00 | 0.00 | 0.10 | 77 | 1016.3 |
| 20260901193124 | 61 | 220 | 1.0 | 2.0 | 0.00 | 0.00 | 0.10 | 77 | 1016.3 |
| 20260901192623 | 61 | 210 | 1.0 | 2.0 | 0.00 | 0.00 | 0.10 | 78 | 1016.3 |
| 20260901192123 | 61 | 217 | 0.0 | 0.0 | 0.00 | 0.00 | 0.10 | 79 | 1016.3 |
| 20260901191623 | 61 | 226 | 1.0 | 1.0 | 0.00 | 0.00 | 0.10 | 79 | 1016.3 |
| 20260901191124 | 61 | 216 | 1.0 | 1.0 | 0.00 | 0.00 | 0.10 | 79 | 1016.3 |
| 20260901190623 | 61 | 229 | 2.0 | 2.0 | 0.00 | 0.00 | 0.10 | 79 | 1016.3 |
| 20260901190123 | 61 | 232 | 2.0 | 2.0 | 0.00 | 0.00 | 0.10 | 80 | 1015.9 |
| 20260901185623 | 61 | 215 | 1.0 | 1.0 | 0.00 | 0.00 | 0.10 | 80 | 1015.9 |
| 20260901185125 | 61 | 226 | 3.0 | 3.0 | 0.00 | 0.00 | 0.10 | 80 | 1015.9 |
| 20260901184623 | 61 | 204 | 1.0 | 1.0 | 0.00 | 0.00 | 0.10 | 80 | 1015.9 |
| 20260901184124 | 61 | 214 | 1.0 | 1.0 | 0.00 | 0.00 | 0.10 | 80 | 1015.9 |
| 20260901183623 | 61 | 205 | 0.0 | 0.0 | 0.00 | 0.00 | 0.10 | 80 | 1015.9 |
| 20260901183124 | 61 | 215 | 1.0 | 2.0 | 0.00 | 0.00 | 0.10 | 80 | 1015.6 |
| 20260901182623 | 61 | 212 | 0.0 | 0.0 | 0.00 | 0.00 | 0.10 | 80 | 1015.6 |
| 20260901182124 | 61 | 202 | 0.0 | 1.0 | 0.00 | 0.00 | 0.10 | 80 | 1015.6 |
| 20260901181623 | 61 | 219 | 1.0 | 1.0 | 0.00 | 0.00 | 0.10 | 80 | 1015.9 |
| 20260901181125 | 61 | 223 | 1.0 | 1.0 | 0.00 | 0.00 | 0.10 | 80 | 1015.6 |
| 20260901180625 | 61 | 219 | 1.0 | 1.0 | 0.00 | 0.00 | 0.10 | 80 | 1015.6 |
| 20260901180125 | 61 | 233 | 0.0 | 1.0 | 0.00 | 0.00 | 0.10 | 80 | 1015.6 |
| 20260901175623 | 61 | 216 | 0.0 | 0.0 | 0.00 | 0.00 | 0.10 | 80 | 1015.6 |
| 20260901175123 | 61 | 235 | 1.0 | 1.0 | 0.00 | 0.00 | 0.10 | 80 | 1015.6 |
| 20260901174623 | 61 | 274 | 2.0 | 3.0 | 0.00 | 0.00 | 0.10 | 80 | 1015.6 |
| 20260901174123 | 61 | 264 | 3.0 | 5.0 | 0.00 | 0.00 | 0.10 | 80 | 1015.6 |
| 20260901173628 | 61 | 219 | 1.0 | 1.0 | 0.00 | 0.00 | 0.10 | 80 | 1015.2 |
| 20260901173123 | 61 | 244 | 1.0 | 2.0 | 0.00 | 0.00 | 0.10 | 79 | 1015.2 |
| 20260901172623 | 61 | 253 | 2.0 | 2.0 | 0.00 | 0.00 | 0.10 | 79 | 1015.2 |
| 20260901172123 | 61 | 208 | 1.0 | 2.0 | 0.00 | 0.00 | 0.10 | 79 | 1015.6 |
| 20260901171625 | 61 | 157 | 1.0 | 1.0 | 0.07 | 0.00 | 0.10 | 79 | 1015.2 |
| 20260901171124 | 61 | 212 | 4.0 | 7.0 | 0.54 | 0.00 | 0.10 | 78 | 1015.6 |
| 20260901170625 | 63 | 282 | 6.0 | 10.0 | 0.47 | 0.00 | 0.09 | 78 | 1015.6 |
| 20260901170124 | 65 | 349 | 7.0 | 9.0 | 0.05 | 0.00 | 0.02 | 73 | 1015.6 |
| 20260901165623 | 65 | 346 | 3.0 | 6.0 | 0.00 | 0.00 | 0.01 | 69 | 1015.2 |
| 20260901165123 | 66 | 328 | 5.0 | 9.0 | 0.00 | 0.00 | 0.01 | 67 | 1015.2 |
| 20260901164624 | 67 | 198 | 4.0 | 6.0 | 0.00 | 0.00 | 0.01 | 66 | 1015.2 |
| 20260901164123 | 69 | 354 | 7.0 | 15.0 | 0.00 | 0.00 | 0.01 | 68 | 1015.2 |
| 20260901163624 | 69 | 280 | 1.0 | 1.0 | 0.00 | 0.00 | 0.01 | 66 | 1014.9 |
| 20260901163123 | 70 | 240 | 1.0 | 1.0 | 0.00 | 0.00 | 0.01 | 66 | 1014.9 |
| 20260901162624 | 71 | 329 | 0.0 | 1.0 | 0.00 | 0.00 | 0.01 | 64 | 1014.9 |
| 20260901162133 | 71 | 209 | 2.0 | 2.0 | 0.00 | 0.00 | 0.01 | 56 | 1014.6 |
| 20260901161623 | 71 | 268 | 1.0 | 2.0 | 0.00 | 0.00 | 0.01 | 55 | 1014.9 |
| 20260901161123 | 71 | 289 | 3.0 | 3.0 | 0.00 | 0.00 | 0.01 | 55 | 1014.9 |
| 20260901160623 | 72 | 294 | 3.0 | 5.0 | 0.00 | 0.00 | 0.01 | 54 | 1014.9 |
| 20260901160124 | 71 | 234 | 4.0 | 6.0 | 0.00 | 0.00 | 0.01 | 55 | 1014.6 |
| 20260901155625 | 72 | 268 | 12.0 | 13.0 | 0.00 | 0.00 | 0.01 | 55 | 1014.6 |
| 20260901155123 | 71 | 229 | 3.0 | 5.0 | 0.00 | 0.00 | 0.01 | 56 | 1014.2 |
| 20260901154623 | 71 | 227 | 3.0 | 3.0 | 0.00 | 0.00 | 0.01 | 56 | 1014.2 |
| 20260901154124 | 71 | 254 | 9.0 | 9.0 | 0.00 | 0.00 | 0.01 | 56 | 1014.6 |
| 20260901153623 | 71 | 234 | 7.0 | 9.0 | 0.00 | 0.00 | 0.01 | 55 | 1014.2 |
| 20260901153124 | 71 | 225 | 7.0 | 11.0 | 0.00 | 0.00 | 0.01 | 55 | 1014.6 |
| 20260901152623 | 71 | 249 | 6.0 | 7.0 | 0.00 | 0.00 | 0.01 | 54 | 1014.6 |
| 20260901152123 | 71 | 234 | 5.0 | 8.0 | 0.00 | 0.00 | 0.01 | 55 | 1014.2 |
| 20260901151624 | 71 | 269 | 5.0 | 7.0 | 0.00 | 0.00 | 0.01 | 54 | 1014.6 |
| 20260901151127 | 71 | 254 | 10.0 | 14.0 | 0.00 | 0.00 | 0.01 | 54 | 1014.2 |
| 20260901150624 | 71 | 241 | 5.0 | 8.0 | 0.00 | 0.00 | 0.01 | 55 | 1014.2 |
| 20260901150124 | 72 | 236 | 5.0 | 6.0 | 0.00 | 0.00 | 0.01 | 55 | 1014.2 |
| 20260901145623 | 72 | 256 | 7.0 | 9.0 | 0.00 | 0.00 | 0.01 | 54 | 1014.6 |
| 20260901145124 | 71 | 238 | 5.0 | 6.0 | 0.00 | 0.00 | 0.01 | 53 | 1014.2 |
| 20260901144623 | 71 | 230 | 1.0 | 2.0 | 0.00 | 0.00 | 0.01 | 53 | 1014.2 |
| 20260901144124 | 72 | 227 | 2.0 | 3.0 | 0.00 | 0.00 | 0.01 | 53 | 1014.2 |
| 20260901143623 | 72 | 309 | 4.0 | 6.0 | 0.00 | 0.00 | 0.01 | 53 | 1014.2 |
| 20260901143123 | 72 | 240 | 5.0 | 8.0 | 0.00 | 0.00 | 0.01 | 52 | 1014.2 |
| 20260901142623 | 73 | 285 | 4.0 | 7.0 | 0.00 | 0.00 | 0.01 | 49 | 1014.2 |
| 20260901142123 | 73 | 218 | 5.0 | 9.0 | 0.00 | 0.00 | 0.01 | 52 | 1014.2 |
| 20260901141623 | 74 | 183 | 4.0 | 6.0 | 0.00 | 0.00 | 0.01 | 51 | 1014.2 |
| 20260901141126 | 74 | 243 | 1.0 | 1.0 | 0.00 | 0.00 | 0.01 | 55 | 1014.2 |
| 20260901140623 | 74 | 211 | 1.0 | 2.0 | 0.00 | 0.00 | 0.01 | 55 | 1014.2 |
| 20260901140123 | 73 | 272 | 4.0 | 5.0 | 0.00 | 0.00 | 0.01 | 56 | 1014.2 |
| 20260901135624 | 73 | 268 | 3.0 | 3.0 | 0.00 | 0.00 | 0.01 | 56 | 1014.2 |
| 20260901135125 | 75 | 325 | 5.0 | 6.0 | 0.00 | 0.00 | 0.01 | 55 | 1014.2 |
| 20260901134623 | 72 | 230 | 3.0 | 6.0 | 0.00 | 0.00 | 0.01 | 55 | 1014.2 |
| 20260901134124 | 71 | 239 | 7.0 | 10.0 | 0.00 | 0.00 | 0.01 | 59 | 1014.2 |
| 20260901133623 | 71 | 258 | 13.0 | 17.0 | 0.00 | 0.00 | 0.01 | 59 | 1014.2 |
| 20260901133123 | 71 | 272 | 5.0 | 6.0 | 0.00 | 0.00 | 0.01 | 58 | 1014.2 |
| 20260901132624 | 71 | 231 | 7.0 | 10.0 | 0.00 | 0.00 | 0.01 | 59 | 1014.2 |
| 20260901132127 | 70 | 279 | 7.0 | 8.0 | 0.00 | 0.00 | 0.01 | 62 | 1014.2 |
| 20260901131624 | 71 | 217 | 5.0 | 7.0 | 0.00 | 0.00 | 0.01 | 62 | 1014.2 |
| 20260901131124 | 69 | 217 | 6.0 | 8.0 | 0.00 | 0.00 | 0.01 | 64 | 1014.6 |
| 20260901130623 | 70 | 242 | 7.0 | 9.0 | 0.00 | 0.00 | 0.01 | 67 | 1014.2 |
| 20260901130123 | 70 | 205 | 3.0 | 5.0 | 0.00 | 0.00 | 0.01 | 66 | 1014.2 |
| 20260901125623 | 68 | 236 | 5.0 | 7.0 | 0.00 | 0.00 | 0.01 | 69 | 1014.2 |
| 20260901125125 | 69 | 266 | 5.0 | 6.0 | 0.00 | 0.00 | 0.01 | 69 | 1014.6 |
| 20260901124624 | 68 | 213 | 2.0 | 3.0 | 0.00 | 0.00 | 0.01 | 69 | 1014.2 |
| 20260901124124 | 68 | 237 | 4.0 | 7.0 | 0.00 | 0.00 | 0.01 | 70 | 1014.6 |
| 20260901123624 | 68 | 259 | 7.0 | 10.0 | 0.00 | 0.00 | 0.01 | 70 | 1014.6 |
| 20260901123124 | 68 | 228 | 7.0 | 8.0 | 0.00 | 0.00 | 0.01 | 69 | 1014.2 |
| 20260901122624 | 67 | 296 | 3.0 | 5.0 | 0.00 | 0.00 | 0.01 | 69 | 1014.2 |
| 20260901122123 | 67 | 207 | 4.0 | 8.0 | 0.00 | 0.00 | 0.01 | 68 | 1014.6 |
| 20260901121623 | 67 | 286 | 5.0 | 8.0 | 0.00 | 0.00 | 0.01 | 67 | 1014.2 |
| 20260901121124 | 68 | 261 | 3.0 | 3.0 | 0.00 | 0.00 | 0.01 | 65 | 1014.2 |
| 20260901120624 | 66 | 308 | 9.0 | 13.0 | 0.00 | 0.00 | 0.01 | 67 | 1014.6 |
| 20260901120125 | 67 | 206 | 4.0 | 6.0 | 0.00 | 0.00 | 0.01 | 67 | 1014.6 |
| 20260901115623 | 67 | 230 | 7.0 | 10.0 | 0.00 | 0.00 | 0.01 | 67 | 1014.2 |
| 20260901115125 | 67 | 191 | 2.0 | 3.0 | 0.00 | 0.00 | 0.01 | 69 | 1014.6 |
| 20260901114624 | 67 | 247 | 8.0 | 11.0 | 0.00 | 0.00 | 0.01 | 69 | 1014.2 |
| 20260901114123 | 66 | 254 | 7.0 | 10.0 | 0.00 | 0.00 | 0.01 | 71 | 1014.6 |
| 20260901113623 | 67 | 152 | 10.0 | 13.0 | 0.00 | 0.00 | 0.01 | 72 | 1014.2 |
| 20260901113124 | 68 | 249 | 11.0 | 17.0 | 0.00 | 0.00 | 0.01 | 70 | 1014.2 |
| 20260901112623 | 68 | 257 | 12.0 | 15.0 | 0.00 | 0.00 | 0.01 | 69 | 1014.2 |
| 20260901112125 | 68 | 261 | 9.0 | 14.0 | 0.00 | 0.00 | 0.01 | 70 | 1013.9 |
| 20260901111623 | 68 | 203 | 7.0 | 9.0 | 0.00 | 0.00 | 0.01 | 68 | 1014.2 |
| 20260901111123 | 68 | 238 | 5.0 | 6.0 | 0.00 | 0.00 | 0.01 | 68 | 1014.2 |
| 20260901110623 | 67 | 268 | 6.0 | 8.0 | 0.00 | 0.00 | 0.01 | 70 | 1014.2 |
| 20260901110124 | 68 | 269 | 6.0 | 9.0 | 0.00 | 0.00 | 0.01 | 67 | 1014.2 |
| 20260901105623 | 67 | 250 | 4.0 | 6.0 | 0.00 | 0.00 | 0.01 | 69 | 1014.2 |
| 20260901105124 | 67 | 250 | 11.0 | 15.0 | 0.00 | 0.00 | 0.01 | 69 | 1014.2 |
| 20260901104623 | 68 | 269 | 7.0 | 8.0 | 0.00 | 0.00 | 0.01 | 68 | 1013.9 |
| 20260901104123 | 68 | 276 | 12.0 | 15.0 | 0.00 | 0.00 | 0.01 | 67 | 1013.9 |
| 20260901103624 | 68 | 251 | 9.0 | 13.0 | 0.00 | 0.00 | 0.01 | 65 | 1014.2 |
| 20260901103123 | 69 | 240 | 3.0 | 5.0 | 0.00 | 0.00 | 0.01 | 62 | 1013.9 |
| 20260901102623 | 68 | 158 | 2.0 | 3.0 | 0.00 | 0.00 | 0.01 | 65 | 1014.2 |
| 20260901102123 | 68 | 261 | 7.0 | 8.0 | 0.00 | 0.00 | 0.01 | 68 | 1013.9 |
| 20260901101624 | 68 | 224 | 5.0 | 8.0 | 0.00 | 0.00 | 0.01 | 68 | 1013.6 |
| 20260901101123 | 67 | 255 | 4.0 | 7.0 | 0.00 | 0.00 | 0.01 | 68 | 1013.9 |
| 20260901100623 | 67 | 231 | 11.0 | 14.0 | 0.00 | 0.00 | 0.01 | 69 | 1013.6 |
| 20260901100123 | 66 | 214 | 2.0 | 2.0 | 0.00 | 0.00 | 0.01 | 70 | 1013.6 |
| 20260901095623 | 66 | 242 | 11.0 | 14.0 | 0.00 | 0.00 | 0.01 | 71 | 1013.9 |
| 20260901095123 | 67 | 348 | 7.0 | 9.0 | 0.00 | 0.00 | 0.01 | 70 | 1013.6 |
| 20260901094624 | 66 | 251 | 9.0 | 11.0 | 0.00 | 0.00 | 0.01 | 72 | 1013.6 |
| 20260901094124 | 66 | 277 | 6.0 | 8.0 | 0.00 | 0.00 | 0.01 | 72 | 1013.9 |
| 20260901093623 | 66 | 255 | 5.0 | 7.0 | 0.00 | 0.00 | 0.01 | 72 | 1013.6 |
| 20260901093123 | 65 | 232 | 5.0 | 7.0 | 0.00 | 0.00 | 0.01 | 71 | 1013.6 |
| 20260901092624 | 66 | 269 | 7.0 | 10.0 | 0.00 | 0.00 | 0.01 | 71 | 1013.6 |
| 20260901092123 | 67 | 230 | 3.0 | 5.0 | 0.00 | 0.00 | 0.01 | 70 | 1013.6 |
| 20260901091624 | 66 | 251 | 9.0 | 11.0 | 0.00 | 0.00 | 0.01 | 71 | 1013.6 |
| 20260901091123 | 66 | 277 | 5.0 | 9.0 | 0.00 | 0.00 | 0.01 | 71 | 1013.6 |
| 20260901090623 | 66 | 260 | 5.0 | 7.0 | 0.00 | 0.00 | 0.01 | 72 | 1013.6 |
| 20260901090124 | 66 | 220 | 6.0 | 7.0 | 0.00 | 0.00 | 0.01 | 73 | 1013.6 |
| 20260901085623 | 65 | 222 | 4.0 | 5.0 | 0.00 | 0.00 | 0.01 | 74 | 1013.6 |
| 20260901085123 | 65 | 217 | 5.0 | 7.0 | 0.00 | 0.00 | 0.01 | 74 | 1013.6 |
| 20260901084626 | 64 | 162 | 2.0 | 5.0 | 0.00 | 0.00 | 0.01 | 74 | 1013.6 |
| 20260901084123 | 64 | 279 | 3.0 | 5.0 | 0.00 | 0.00 | 0.01 | 75 | 1013.6 |
| 20260901083625 | 64 | 247 | 4.0 | 6.0 | 0.00 | 0.00 | 0.01 | 76 | 1013.6 |
| 20260901083123 | 63 | 251 | 4.0 | 6.0 | 0.00 | 0.00 | 0.01 | 78 | 1013.6 |
| 20260901082623 | 63 | 236 | 1.0 | 1.0 | 0.00 | 0.00 | 0.01 | 79 | 1013.6 |
| 20260901082123 | 63 | 221 | 3.0 | 5.0 | 0.00 | 0.00 | 0.01 | 79 | 1013.6 |
| 20260901081623 | 62 | 302 | 4.0 | 5.0 | 0.00 | 0.00 | 0.01 | 79 | 1013.6 |
| 20260901081123 | 62 | 234 | 7.0 | 8.0 | 0.00 | 0.00 | 0.01 | 80 | 1013.2 |
| 20260901080623 | 62 | 190 | 5.0 | 8.0 | 0.00 | 0.00 | 0.01 | 80 | 1013.2 |
| 20260901080123 | 61 | 226 | 5.0 | 7.0 | 0.00 | 0.00 | 0.01 | 81 | 1013.6 |
| 20260901075623 | 61 | 221 | 5.0 | 7.0 | 0.00 | 0.00 | 0.01 | 81 | 1013.2 |
| 20260901075123 | 61 | 272 | 9.0 | 13.0 | 0.00 | 0.00 | 0.01 | 81 | 1013.2 |
| 20260901074623 | 61 | 234 | 8.0 | 9.0 | 0.00 | 0.00 | 0.01 | 81 | 1013.2 |
| 20260901074124 | 61 | 223 | 3.0 | 5.0 | 0.00 | 0.00 | 0.01 | 81 | 1012.9 |
| 20260901073624 | 61 | 233 | 5.0 | 6.0 | 0.00 | 0.00 | 0.01 | 81 | 1012.9 |
| 20260901073123 | 61 | 184 | 4.0 | 5.0 | 0.00 | 0.00 | 0.01 | 81 | 1012.9 |
| 20260901072624 | 61 | 258 | 5.0 | 6.0 | 0.00 | 0.00 | 0.01 | 81 | 1012.9 |
| 20260901072123 | 61 | 215 | 3.0 | 5.0 | 0.00 | 0.00 | 0.01 | 81 | 1012.9 |
| 20260901071623 | 61 | 241 | 3.0 | 5.0 | 0.00 | 0.00 | 0.01 | 81 | 1013.2 |
| 20260901071125 | 60 | 221 | 5.0 | 6.0 | 0.00 | 0.00 | 0.01 | 81 | 1012.9 |
| 20260901070623 | 61 | 274 | 5.0 | 6.0 | 0.00 | 0.00 | 0.01 | 81 | 1012.9 |
| 20260901070123 | 60 | 243 | 3.0 | 3.0 | 0.00 | 0.00 | 0.01 | 82 | 1012.9 |
| 20260901065624 | 60 | 240 | 5.0 | 6.0 | 0.00 | 0.00 | 0.01 | 82 | 1012.9 |
| 20260901065123 | 60 | 241 | 4.0 | 5.0 | 0.00 | 0.00 | 0.01 | 82 | 1012.5 |
| 20260901064623 | 60 | 260 | 6.0 | 9.0 | 0.00 | 0.00 | 0.01 | 82 | 1012.5 |
| 20260901064124 | 60 | 265 | 8.0 | 9.0 | 0.00 | 0.00 | 0.01 | 82 | 1012.5 |
| 20260901063623 | 60 | 245 | 5.0 | 7.0 | 0.00 | 0.00 | 0.01 | 82 | 1012.5 |
| 20260901063124 | 60 | 250 | 5.0 | 6.0 | 0.00 | 0.00 | 0.01 | 82 | 1012.5 |
| 20260901062627 | 60 | 238 | 5.0 | 7.0 | 0.00 | 0.00 | 0.01 | 81 | 1012.5 |
| 20260901062127 | 60 | 271 | 7.0 | 9.0 | 0.00 | 0.00 | 0.01 | 81 | 1012.5 |
| 20260901061625 | 60 | 238 | 5.0 | 6.0 | 0.00 | 0.00 | 0.01 | 82 | 1012.5 |
| 20260901061123 | 60 | 240 | 5.0 | 7.0 | 0.00 | 0.00 | 0.01 | 82 | 1012.2 |
| 20260901060623 | 59 | 243 | 9.0 | 13.0 | 0.00 | 0.00 | 0.01 | 82 | 1012.2 |
| 20260901060123 | 59 | 262 | 5.0 | 8.0 | 0.00 | 0.00 | 0.01 | 83 | 1012.2 |
| 20260901055623 | 59 | 225 | 6.0 | 7.0 | 0.00 | 0.00 | 0.01 | 83 | 1012.2 |
| 20260901055123 | 59 | 213 | 6.0 | 7.0 | 0.00 | 0.00 | 0.01 | 84 | 1011.9 |
| 20260901054624 | 59 | 241 | 5.0 | 6.0 | 0.00 | 0.00 | 0.01 | 84 | 1012.2 |
| 20260901054123 | 59 | 228 | 5.0 | 6.0 | 0.00 | 0.00 | 0.01 | 83 | 1011.9 |
| 20260901053623 | 59 | 243 | 5.0 | 6.0 | 0.00 | 0.00 | 0.01 | 84 | 1011.9 |
| 20260901053123 | 59 | 246 | 6.0 | 7.0 | 0.00 | 0.00 | 0.01 | 84 | 1012.2 |
| 20260901052623 | 59 | 262 | 6.0 | 7.0 | 0.00 | 0.00 | 0.01 | 84 | 1011.9 |
| 20260901052123 | 59 | 203 | 4.0 | 6.0 | 0.00 | 0.00 | 0.01 | 84 | 1011.5 |
| 20260901051623 | 59 | 278 | 6.0 | 7.0 | 0.00 | 0.00 | 0.01 | 85 | 1011.9 |
| 20260901051123 | 59 | 262 | 5.0 | 6.0 | 0.00 | 0.00 | 0.01 | 85 | 1011.9 |
| 20260901050623 | 59 | 242 | 4.0 | 5.0 | 0.00 | 0.00 | 0.01 | 85 | 1011.5 |
| 20260901050123 | 59 | 232 | 3.0 | 3.0 | 0.00 | 0.00 | 0.01 | 85 | 1011.5 |
| 20260901045623 | 59 | 212 | 1.0 | 2.0 | 0.00 | 0.00 | 0.01 | 85 | 1011.5 |
| 20260901045125 | 59 | 210 | 3.0 | 5.0 | 0.00 | 0.00 | 0.01 | 85 | 1011.5 |
| 20260901044623 | 59 | 241 | 5.0 | 7.0 | 0.00 | 0.00 | 0.01 | 85 | 1011.9 |
| 20260901044123 | 59 | 248 | 5.0 | 6.0 | 0.00 | 0.00 | 0.01 | 85 | 1011.2 |
| 20260901043623 | 59 | 246 | 4.0 | 5.0 | 0.00 | 0.00 | 0.01 | 85 | 1011.5 |
| 20260901043124 | 59 | 227 | 4.0 | 6.0 | 0.00 | 0.00 | 0.01 | 85 | 1011.5 |
| 20260901042624 | 59 | 238 | 2.0 | 5.0 | 0.00 | 0.00 | 0.01 | 85 | 1011.5 |